sensor_id;sensor_type;location;lat;lon;timestamp;P1;durP1;ratioP1;P2;durP2;ratioP2
77788;SDS011;70537;44.384;0.512;2023-12-20T00:00:19;13.40;;;7.65;;
77788;SDS011;70537;44.384;0.512;2023-12-20T00:02:44;13.13;;;8.40;;
77788;SDS011;70537;44.384;0.512;2023-12-20T00:05:12;11.00;;;7.07;;
77788;SDS011;70537;44.384;0.512;2023-12-20T00:07:38;13.05;;;8.57;;
77788;SDS011;70537;44.384;0.512;2023-12-20T00:10:04;16.77;;;8.13;;
77788;SDS011;70537;44.384;0.512;2023-12-20T00:12:29;11.32;;;7.72;;
77788;SDS011;70537;44.384;0.512;2023-12-20T00:14:54;14.10;;;8.45;;
77788;SDS011;70537;44.384;0.512;2023-12-20T00:17:20;17.95;;;9.02;;
77788;SDS011;70537;44.384;0.512;2023-12-20T00:19:45;12.65;;;6.63;;
77788;SDS011;70537;44.384;0.512;2023-12-20T00:22:10;15.25;;;8.98;;
77788;SDS011;70537;44.384;0.512;2023-12-20T00:24:36;10.90;;;6.38;;
77788;SDS011;70537;44.384;0.512;2023-12-20T00:27:01;10.30;;;7.63;;
77788;SDS011;70537;44.384;0.512;2023-12-20T00:29:27;9.25;;;7.28;;
77788;SDS011;70537;44.384;0.512;2023-12-20T00:31:52;9.95;;;7.13;;
77788;SDS011;70537;44.384;0.512;2023-12-20T00:34:18;13.15;;;6.97;;
77788;SDS011;70537;44.384;0.512;2023-12-20T00:36:43;10.00;;;7.15;;
77788;SDS011;70537;44.384;0.512;2023-12-20T00:39:08;10.82;;;6.95;;
77788;SDS011;70537;44.384;0.512;2023-12-20T00:41:34;15.10;;;7.25;;
77788;SDS011;70537;44.384;0.512;2023-12-20T00:43:59;11.45;;;6.90;;
77788;SDS011;70537;44.384;0.512;2023-12-20T00:46:25;16.85;;;7.28;;
77788;SDS011;70537;44.384;0.512;2023-12-20T00:48:50;11.23;;;6.53;;
77788;SDS011;70537;44.384;0.512;2023-12-20T00:51:15;10.85;;;6.35;;
77788;SDS011;70537;44.384;0.512;2023-12-20T00:53:41;12.93;;;7.00;;
77788;SDS011;70537;44.384;0.512;2023-12-20T00:56:06;10.85;;;6.18;;
77788;SDS011;70537;44.384;0.512;2023-12-20T00:58:31;10.75;;;5.90;;
77788;SDS011;70537;44.384;0.512;2023-12-20T01:00:57;11.30;;;6.25;;
77788;SDS011;70537;44.384;0.512;2023-12-20T01:03:23;10.63;;;6.18;;
77788;SDS011;70537;44.384;0.512;2023-12-20T01:05:48;12.73;;;7.65;;
77788;SDS011;70537;44.384;0.512;2023-12-20T01:08:14;14.57;;;6.40;;
77788;SDS011;70537;44.384;0.512;2023-12-20T01:10:39;11.10;;;6.75;;
77788;SDS011;70537;44.384;0.512;2023-12-20T01:13:05;12.65;;;6.45;;
77788;SDS011;70537;44.384;0.512;2023-12-20T01:15:30;9.68;;;6.38;;
77788;SDS011;70537;44.384;0.512;2023-12-20T01:17:56;12.50;;;6.30;;
77788;SDS011;70537;44.384;0.512;2023-12-20T01:20:23;12.15;;;6.55;;
77788;SDS011;70537;44.384;0.512;2023-12-20T01:22:49;13.43;;;6.78;;
77788;SDS011;70537;44.384;0.512;2023-12-20T01:25:14;9.00;;;6.07;;
77788;SDS011;70537;44.384;0.512;2023-12-20T01:27:39;11.95;;;6.15;;
77788;SDS011;70537;44.384;0.512;2023-12-20T01:30:05;11.43;;;7.03;;
77788;SDS011;70537;44.384;0.512;2023-12-20T01:32:30;10.07;;;6.07;;
77788;SDS011;70537;44.384;0.512;2023-12-20T01:34:56;13.40;;;6.70;;
77788;SDS011;70537;44.384;0.512;2023-12-20T01:37:21;8.98;;;5.68;;
77788;SDS011;70537;44.384;0.512;2023-12-20T01:39:49;16.25;;;7.35;;
77788;SDS011;70537;44.384;0.512;2023-12-20T01:42:14;11.48;;;5.72;;
77788;SDS011;70537;44.384;0.512;2023-12-20T01:44:39;10.73;;;6.18;;
77788;SDS011;70537;44.384;0.512;2023-12-20T01:47:05;10.90;;;6.45;;
77788;SDS011;70537;44.384;0.512;2023-12-20T01:49:30;8.63;;;5.57;;
77788;SDS011;70537;44.384;0.512;2023-12-20T01:51:56;13.98;;;6.38;;
77788;SDS011;70537;44.384;0.512;2023-12-20T01:54:21;9.10;;;5.97;;
77788;SDS011;70537;44.384;0.512;2023-12-20T01:56:48;6.80;;;5.43;;
77788;SDS011;70537;44.384;0.512;2023-12-20T01:59:14;5.68;;;4.93;;
77788;SDS011;70537;44.384;0.512;2023-12-20T02:01:39;8.45;;;4.97;;
77788;SDS011;70537;44.384;0.512;2023-12-20T02:04:04;9.40;;;5.82;;
77788;SDS011;70537;44.384;0.512;2023-12-20T02:06:30;6.90;;;4.88;;
77788;SDS011;70537;44.384;0.512;2023-12-20T02:08:58;6.93;;;4.90;;
77788;SDS011;70537;44.384;0.512;2023-12-20T02:11:24;8.43;;;5.05;;
77788;SDS011;70537;44.384;0.512;2023-12-20T02:13:50;8.30;;;4.57;;
77788;SDS011;70537;44.384;0.512;2023-12-20T02:16:15;6.95;;;5.15;;
77788;SDS011;70537;44.384;0.512;2023-12-20T02:18:42;6.85;;;4.40;;
77788;SDS011;70537;44.384;0.512;2023-12-20T02:21:07;7.38;;;4.88;;
77788;SDS011;70537;44.384;0.512;2023-12-20T02:23:34;8.68;;;4.63;;
77788;SDS011;70537;44.384;0.512;2023-12-20T02:25:59;5.47;;;4.22;;
77788;SDS011;70537;44.384;0.512;2023-12-20T02:28:25;5.53;;;3.85;;
77788;SDS011;70537;44.384;0.512;2023-12-20T02:30:50;5.97;;;4.38;;
77788;SDS011;70537;44.384;0.512;2023-12-20T02:33:15;11.02;;;4.57;;
77788;SDS011;70537;44.384;0.512;2023-12-20T02:35:41;12.07;;;3.75;;
77788;SDS011;70537;44.384;0.512;2023-12-20T02:38:06;6.93;;;4.15;;
77788;SDS011;70537;44.384;0.512;2023-12-20T02:40:32;8.25;;;4.07;;
77788;SDS011;70537;44.384;0.512;2023-12-20T02:42:57;6.35;;;4.25;;
77788;SDS011;70537;44.384;0.512;2023-12-20T02:45:22;9.52;;;4.38;;
77788;SDS011;70537;44.384;0.512;2023-12-20T02:47:48;9.65;;;3.78;;
77788;SDS011;70537;44.384;0.512;2023-12-20T02:50:13;4.63;;;4.03;;
77788;SDS011;70537;44.384;0.512;2023-12-20T02:52:39;7.03;;;4.22;;
77788;SDS011;70537;44.384;0.512;2023-12-20T02:55:04;5.68;;;4.25;;
77788;SDS011;70537;44.384;0.512;2023-12-20T02:57:30;5.25;;;4.18;;
77788;SDS011;70537;44.384;0.512;2023-12-20T02:59:55;8.98;;;4.72;;
77788;SDS011;70537;44.384;0.512;2023-12-20T03:02:20;5.95;;;3.97;;
77788;SDS011;70537;44.384;0.512;2023-12-20T03:04:46;6.57;;;4.03;;
77788;SDS011;70537;44.384;0.512;2023-12-20T03:07:11;6.85;;;4.43;;
77788;SDS011;70537;44.384;0.512;2023-12-20T03:09:37;6.03;;;4.35;;
77788;SDS011;70537;44.384;0.512;2023-12-20T03:12:02;8.40;;;4.18;;
77788;SDS011;70537;44.384;0.512;2023-12-20T03:14:28;7.07;;;4.28;;
77788;SDS011;70537;44.384;0.512;2023-12-20T03:16:53;4.72;;;3.70;;
77788;SDS011;70537;44.384;0.512;2023-12-20T03:19:18;8.10;;;4.13;;
77788;SDS011;70537;44.384;0.512;2023-12-20T03:21:44;5.25;;;3.97;;
77788;SDS011;70537;44.384;0.512;2023-12-20T03:24:10;4.43;;;3.63;;
77788;SDS011;70537;44.384;0.512;2023-12-20T03:26:35;4.93;;;3.13;;
77788;SDS011;70537;44.384;0.512;2023-12-20T03:29:00;5.28;;;3.25;;
77788;SDS011;70537;44.384;0.512;2023-12-20T03:31:26;6.13;;;4.18;;
77788;SDS011;70537;44.384;0.512;2023-12-20T03:33:51;10.45;;;3.72;;
77788;SDS011;70537;44.384;0.512;2023-12-20T03:36:18;5.20;;;3.40;;
77788;SDS011;70537;44.384;0.512;2023-12-20T03:38:43;5.68;;;3.20;;
77788;SDS011;70537;44.384;0.512;2023-12-20T03:41:09;6.70;;;3.50;;
77788;SDS011;70537;44.384;0.512;2023-12-20T03:43:34;3.72;;;3.10;;
77788;SDS011;70537;44.384;0.512;2023-12-20T03:46:00;7.03;;;3.83;;
77788;SDS011;70537;44.384;0.512;2023-12-20T03:48:25;5.22;;;3.47;;
77788;SDS011;70537;44.384;0.512;2023-12-20T03:50:50;5.55;;;3.67;;
77788;SDS011;70537;44.384;0.512;2023-12-20T03:53:16;6.20;;;3.35;;
77788;SDS011;70537;44.384;0.512;2023-12-20T03:55:41;5.63;;;3.65;;
77788;SDS011;70537;44.384;0.512;2023-12-20T03:58:06;4.20;;;3.17;;
77788;SDS011;70537;44.384;0.512;2023-12-20T04:00:32;4.93;;;4.05;;
77788;SDS011;70537;44.384;0.512;2023-12-20T04:02:57;5.13;;;4.03;;
77788;SDS011;70537;44.384;0.512;2023-12-20T04:05:23;4.90;;;3.40;;
77788;SDS011;70537;44.384;0.512;2023-12-20T04:07:48;5.07;;;3.60;;
77788;SDS011;70537;44.384;0.512;2023-12-20T04:10:15;6.20;;;3.17;;
77788;SDS011;70537;44.384;0.512;2023-12-20T04:12:40;7.40;;;3.97;;
77788;SDS011;70537;44.384;0.512;2023-12-20T04:15:06;4.75;;;3.78;;
77788;SDS011;70537;44.384;0.512;2023-12-20T04:17:34;8.75;;;3.65;;
77788;SDS011;70537;44.384;0.512;2023-12-20T04:19:59;4.65;;;3.53;;
77788;SDS011;70537;44.384;0.512;2023-12-20T04:22:25;4.63;;;3.00;;
77788;SDS011;70537;44.384;0.512;2023-12-20T04:24:50;4.22;;;3.80;;
77788;SDS011;70537;44.384;0.512;2023-12-20T04:27:15;5.88;;;3.13;;
77788;SDS011;70537;44.384;0.512;2023-12-20T04:29:41;7.93;;;3.22;;
77788;SDS011;70537;44.384;0.512;2023-12-20T04:32:06;4.35;;;2.67;;
77788;SDS011;70537;44.384;0.512;2023-12-20T04:34:31;4.18;;;2.42;;
77788;SDS011;70537;44.384;0.512;2023-12-20T04:36:57;2.85;;;2.00;;
77788;SDS011;70537;44.384;0.512;2023-12-20T04:39:22;2.05;;;1.52;;
77788;SDS011;70537;44.384;0.512;2023-12-20T04:41:47;4.70;;;2.40;;
77788;SDS011;70537;44.384;0.512;2023-12-20T04:44:13;3.17;;;1.85;;
77788;SDS011;70537;44.384;0.512;2023-12-20T04:46:39;1.67;;;1.45;;
77788;SDS011;70537;44.384;0.512;2023-12-20T04:49:04;3.38;;;1.63;;
77788;SDS011;70537;44.384;0.512;2023-12-20T04:51:29;2.50;;;1.45;;
77788;SDS011;70537;44.384;0.512;2023-12-20T04:53:55;1.33;;;1.23;;
77788;SDS011;70537;44.384;0.512;2023-12-20T04:56:20;4.63;;;1.80;;
77788;SDS011;70537;44.384;0.512;2023-12-20T04:58:45;1.33;;;0.90;;
77788;SDS011;70537;44.384;0.512;2023-12-20T05:01:11;1.77;;;0.93;;
77788;SDS011;70537;44.384;0.512;2023-12-20T05:03:37;0.93;;;0.82;;
77788;SDS011;70537;44.384;0.512;2023-12-20T05:06:02;1.33;;;0.82;;
77788;SDS011;70537;44.384;0.512;2023-12-20T05:08:28;1.55;;;0.80;;
77788;SDS011;70537;44.384;0.512;2023-12-20T05:10:53;0.88;;;0.80;;
77788;SDS011;70537;44.384;0.512;2023-12-20T05:13:19;1.00;;;0.40;;
77788;SDS011;70537;44.384;0.512;2023-12-20T05:15:44;0.55;;;0.55;;
77788;SDS011;70537;44.384;0.512;2023-12-20T05:18:10;4.47;;;0.85;;
77788;SDS011;70537;44.384;0.512;2023-12-20T05:20:35;0.68;;;0.60;;
77788;SDS011;70537;44.384;0.512;2023-12-20T05:23:00;0.60;;;0.45;;
77788;SDS011;70537;44.384;0.512;2023-12-20T05:25:26;0.75;;;0.52;;
77788;SDS011;70537;44.384;0.512;2023-12-20T05:27:51;0.98;;;0.65;;
77788;SDS011;70537;44.384;0.512;2023-12-20T05:30:16;1.13;;;0.57;;
77788;SDS011;70537;44.384;0.512;2023-12-20T05:32:42;0.60;;;0.50;;
77788;SDS011;70537;44.384;0.512;2023-12-20T05:35:07;0.70;;;0.55;;
77788;SDS011;70537;44.384;0.512;2023-12-20T05:37:32;1.35;;;0.40;;
77788;SDS011;70537;44.384;0.512;2023-12-20T05:39:58;0.82;;;0.40;;
77788;SDS011;70537;44.384;0.512;2023-12-20T05:42:23;0.55;;;0.52;;
77788;SDS011;70537;44.384;0.512;2023-12-20T05:44:48;0.77;;;0.45;;
77788;SDS011;70537;44.384;0.512;2023-12-20T05:47:14;0.95;;;0.63;;
77788;SDS011;70537;44.384;0.512;2023-12-20T05:49:39;0.80;;;0.63;;
77788;SDS011;70537;44.384;0.512;2023-12-20T05:52:05;5.40;;;1.38;;
77788;SDS011;70537;44.384;0.512;2023-12-20T05:54:30;0.93;;;0.63;;
77788;SDS011;70537;44.384;0.512;2023-12-20T05:56:55;0.85;;;0.70;;
77788;SDS011;70537;44.384;0.512;2023-12-20T05:59:21;0.75;;;0.68;;
77788;SDS011;70537;44.384;0.512;2023-12-20T06:01:46;2.03;;;0.30;;
77788;SDS011;70537;44.384;0.512;2023-12-20T06:04:11;3.47;;;1.30;;
77788;SDS011;70537;44.384;0.512;2023-12-20T06:06:40;2.35;;;1.35;;
77788;SDS011;70537;44.384;0.512;2023-12-20T06:09:06;1.17;;;1.08;;
77788;SDS011;70537;44.384;0.512;2023-12-20T06:11:31;1.75;;;1.20;;
77788;SDS011;70537;44.384;0.512;2023-12-20T06:13:56;3.47;;;1.23;;
77788;SDS011;70537;44.384;0.512;2023-12-20T06:16:22;0.82;;;0.70;;
77788;SDS011;70537;44.384;0.512;2023-12-20T06:18:47;1.10;;;1.00;;
77788;SDS011;70537;44.384;0.512;2023-12-20T06:21:12;4.20;;;1.35;;
77788;SDS011;70537;44.384;0.512;2023-12-20T06:23:38;2.72;;;1.40;;
77788;SDS011;70537;44.384;0.512;2023-12-20T06:26:03;1.90;;;1.10;;
77788;SDS011;70537;44.384;0.512;2023-12-20T06:28:29;4.20;;;1.13;;
77788;SDS011;70537;44.384;0.512;2023-12-20T06:30:54;1.30;;;1.15;;
77788;SDS011;70537;44.384;0.512;2023-12-20T06:33:20;1.67;;;0.82;;
77788;SDS011;70537;44.384;0.512;2023-12-20T06:35:46;0.77;;;0.70;;
77788;SDS011;70537;44.384;0.512;2023-12-20T06:38:11;1.33;;;1.10;;
77788;SDS011;70537;44.384;0.512;2023-12-20T06:40:37;3.05;;;1.10;;
77788;SDS011;70537;44.384;0.512;2023-12-20T06:43:02;1.20;;;1.00;;
77788;SDS011;70537;44.384;0.512;2023-12-20T06:45:28;1.13;;;0.88;;
77788;SDS011;70537;44.384;0.512;2023-12-20T06:47:53;0.60;;;0.43;;
77788;SDS011;70537;44.384;0.512;2023-12-20T06:50:19;0.93;;;0.70;;
77788;SDS011;70537;44.384;0.512;2023-12-20T06:52:45;1.02;;;0.60;;
77788;SDS011;70537;44.384;0.512;2023-12-20T06:55:10;3.17;;;0.93;;
77788;SDS011;70537;44.384;0.512;2023-12-20T06:57:35;3.17;;;1.05;;
77788;SDS011;70537;44.384;0.512;2023-12-20T07:00:02;2.97;;;0.60;;
77788;SDS011;70537;44.384;0.512;2023-12-20T07:02:27;0.77;;;0.77;;
77788;SDS011;70537;44.384;0.512;2023-12-20T07:04:55;0.98;;;0.73;;
77788;SDS011;70537;44.384;0.512;2023-12-20T07:07:20;1.90;;;1.20;;
77788;SDS011;70537;44.384;0.512;2023-12-20T07:09:46;0.77;;;0.55;;
77788;SDS011;70537;44.384;0.512;2023-12-20T07:12:11;3.17;;;1.90;;
77788;SDS011;70537;44.384;0.512;2023-12-20T07:14:36;1.10;;;0.82;;
77788;SDS011;70537;44.384;0.512;2023-12-20T07:17:02;1.23;;;0.95;;
77788;SDS011;70537;44.384;0.512;2023-12-20T07:19:28;4.55;;;0.60;;
77788;SDS011;70537;44.384;0.512;2023-12-20T07:21:53;4.70;;;0.90;;
77788;SDS011;70537;44.384;0.512;2023-12-20T07:24:19;1.00;;;0.65;;
77788;SDS011;70537;44.384;0.512;2023-12-20T07:26:44;0.40;;;0.40;;
77788;SDS011;70537;44.384;0.512;2023-12-20T07:29:09;1.77;;;0.57;;
77788;SDS011;70537;44.384;0.512;2023-12-20T07:31:35;0.90;;;0.75;;
77788;SDS011;70537;44.384;0.512;2023-12-20T07:34:00;1.50;;;0.40;;
77788;SDS011;70537;44.384;0.512;2023-12-20T07:36:25;1.58;;;0.50;;
77788;SDS011;70537;44.384;0.512;2023-12-20T07:38:51;2.38;;;0.57;;
77788;SDS011;70537;44.384;0.512;2023-12-20T07:41:16;2.20;;;1.05;;
77788;SDS011;70537;44.384;0.512;2023-12-20T07:43:41;0.35;;;0.35;;
77788;SDS011;70537;44.384;0.512;2023-12-20T07:46:10;0.40;;;0.28;;
77788;SDS011;70537;44.384;0.512;2023-12-20T07:48:35;1.13;;;0.52;;
77788;SDS011;70537;44.384;0.512;2023-12-20T07:51:01;0.52;;;0.50;;
77788;SDS011;70537;44.384;0.512;2023-12-20T07:53:26;0.15;;;0.15;;
77788;SDS011;70537;44.384;0.512;2023-12-20T07:55:53;0.77;;;0.60;;
77788;SDS011;70537;44.384;0.512;2023-12-20T07:58:19;1.52;;;0.25;;
77788;SDS011;70537;44.384;0.512;2023-12-20T08:00:44;1.60;;;0.32;;
77788;SDS011;70537;44.384;0.512;2023-12-20T08:03:09;4.47;;;0.30;;
77788;SDS011;70537;44.384;0.512;2023-12-20T08:05:35;1.20;;;0.20;;
77788;SDS011;70537;44.384;0.512;2023-12-20T08:08:00;1.40;;;0.60;;
77788;SDS011;70537;44.384;0.512;2023-12-20T08:10:25;1.35;;;0.40;;
77788;SDS011;70537;44.384;0.512;2023-12-20T08:12:52;2.28;;;0.77;;
77788;SDS011;70537;44.384;0.512;2023-12-20T08:15:17;0.80;;;0.30;;
77788;SDS011;70537;44.384;0.512;2023-12-20T08:17:42;2.50;;;0.20;;
77788;SDS011;70537;44.384;0.512;2023-12-20T08:20:08;2.30;;;0.20;;
77788;SDS011;70537;44.384;0.512;2023-12-20T08:22:33;3.60;;;0.43;;
77788;SDS011;70537;44.384;0.512;2023-12-20T08:24:58;0.50;;;0.20;;
77788;SDS011;70537;44.384;0.512;2023-12-20T08:27:24;0.30;;;0.25;;
77788;SDS011;70537;44.384;0.512;2023-12-20T08:29:50;0.88;;;0.28;;
77788;SDS011;70537;44.384;0.512;2023-12-20T08:32:16;3.05;;;0.60;;
77788;SDS011;70537;44.384;0.512;2023-12-20T08:34:41;2.78;;;0.22;;
77788;SDS011;70537;44.384;0.512;2023-12-20T08:37:06;1.73;;;0.40;;
77788;SDS011;70537;44.384;0.512;2023-12-20T08:39:32;2.60;;;0.63;;
77788;SDS011;70537;44.384;0.512;2023-12-20T08:41:58;2.10;;;0.45;;
77788;SDS011;70537;44.384;0.512;2023-12-20T08:44:24;0.32;;;0.20;;
77788;SDS011;70537;44.384;0.512;2023-12-20T08:46:49;7.82;;;0.43;;
77788;SDS011;70537;44.384;0.512;2023-12-20T08:49:14;0.13;;;0.13;;
77788;SDS011;70537;44.384;0.512;2023-12-20T08:51:40;1.67;;;0.20;;
77788;SDS011;70537;44.384;0.512;2023-12-20T08:54:06;0.98;;;0.22;;
77788;SDS011;70537;44.384;0.512;2023-12-20T08:56:34;0.38;;;0.28;;
77788;SDS011;70537;44.384;0.512;2023-12-20T08:59:00;0.60;;;0.28;;
77788;SDS011;70537;44.384;0.512;2023-12-20T09:01:25;3.45;;;0.50;;
77788;SDS011;70537;44.384;0.512;2023-12-20T09:03:50;2.47;;;0.43;;
77788;SDS011;70537;44.384;0.512;2023-12-20T09:06:16;0.98;;;0.55;;
77788;SDS011;70537;44.384;0.512;2023-12-20T09:08:41;1.50;;;0.60;;
77788;SDS011;70537;44.384;0.512;2023-12-20T09:11:06;2.83;;;0.35;;
77788;SDS011;70537;44.384;0.512;2023-12-20T09:13:32;2.58;;;0.30;;
77788;SDS011;70537;44.384;0.512;2023-12-20T09:15:57;1.08;;;0.20;;
77788;SDS011;70537;44.384;0.512;2023-12-20T09:18:22;4.22;;;0.50;;
77788;SDS011;70537;44.384;0.512;2023-12-20T09:20:48;5.47;;;0.40;;
77788;SDS011;70537;44.384;0.512;2023-12-20T09:23:13;2.03;;;0.68;;
77788;SDS011;70537;44.384;0.512;2023-12-20T09:25:39;1.90;;;0.50;;
77788;SDS011;70537;44.384;0.512;2023-12-20T09:28:04;2.40;;;0.63;;
77788;SDS011;70537;44.384;0.512;2023-12-20T09:30:29;0.32;;;0.25;;
77788;SDS011;70537;44.384;0.512;2023-12-20T09:32:55;1.92;;;0.15;;
77788;SDS011;70537;44.384;0.512;2023-12-20T09:35:20;3.30;;;0.75;;
77788;SDS011;70537;44.384;0.512;2023-12-20T09:37:46;1.45;;;0.32;;
77788;SDS011;70537;44.384;0.512;2023-12-20T09:40:15;0.20;;;0.20;;
77788;SDS011;70537;44.384;0.512;2023-12-20T09:43:17;1.25;;;0.30;;
77788;SDS011;70537;44.384;0.512;2023-12-20T09:45:34;1.33;;;0.20;;
77788;SDS011;70537;44.384;0.512;2023-12-20T09:48:00;3.05;;;0.38;;
77788;SDS011;70537;44.384;0.512;2023-12-20T09:50:26;1.63;;;0.30;;
77788;SDS011;70537;44.384;0.512;2023-12-20T09:52:52;1.08;;;0.35;;
77788;SDS011;70537;44.384;0.512;2023-12-20T09:55:18;4.80;;;0.85;;
77788;SDS011;70537;44.384;0.512;2023-12-20T09:57:44;2.42;;;0.52;;
77788;SDS011;70537;44.384;0.512;2023-12-20T10:00:10;5.60;;;0.70;;
77788;SDS011;70537;44.384;0.512;2023-12-20T10:02:35;0.80;;;0.55;;
77788;SDS011;70537;44.384;0.512;2023-12-20T10:05:03;1.55;;;0.43;;
77788;SDS011;70537;44.384;0.512;2023-12-20T10:07:34;5.45;;;0.93;;
77788;SDS011;70537;44.384;0.512;2023-12-20T10:09:59;4.07;;;0.88;;
77788;SDS011;70537;44.384;0.512;2023-12-20T10:12:25;2.92;;;0.73;;
77788;SDS011;70537;44.384;0.512;2023-12-20T10:17:35;3.97;;;0.65;;
77788;SDS011;70537;44.384;0.512;2023-12-20T10:20:00;4.65;;;0.60;;
77788;SDS011;70537;44.384;0.512;2023-12-20T10:22:26;3.10;;;0.40;;
77788;SDS011;70537;44.384;0.512;2023-12-20T10:24:51;0.63;;;0.40;;
77788;SDS011;70537;44.384;0.512;2023-12-20T10:27:17;0.20;;;0.20;;
77788;SDS011;70537;44.384;0.512;2023-12-20T10:29:44;4.40;;;0.70;;
77788;SDS011;70537;44.384;0.512;2023-12-20T10:32:22;1.10;;;0.20;;
77788;SDS011;70537;44.384;0.512;2023-12-20T10:34:49;0.55;;;0.25;;
77788;SDS011;70537;44.384;0.512;2023-12-20T10:37:14;6.88;;;0.55;;
77788;SDS011;70537;44.384;0.512;2023-12-20T10:39:39;3.67;;;0.60;;
77788;SDS011;70537;44.384;0.512;2023-12-20T10:42:06;0.50;;;0.20;;
77788;SDS011;70537;44.384;0.512;2023-12-20T10:44:32;2.40;;;0.50;;
77788;SDS011;70537;44.384;0.512;2023-12-20T10:46:57;3.30;;;0.52;;
77788;SDS011;70537;44.384;0.512;2023-12-20T10:49:24;0.90;;;0.28;;
77788;SDS011;70537;44.384;0.512;2023-12-20T10:51:50;1.35;;;0.22;;
77788;SDS011;70537;44.384;0.512;2023-12-20T10:54:17;6.53;;;0.98;;
77788;SDS011;70537;44.384;0.512;2023-12-20T10:56:42;6.22;;;0.60;;
77788;SDS011;70537;44.384;0.512;2023-12-20T10:59:08;0.35;;;0.08;;
77788;SDS011;70537;44.384;0.512;2023-12-20T11:01:35;5.45;;;1.40;;
77788;SDS011;70537;44.384;0.512;2023-12-20T11:04:01;4.50;;;0.47;;
77788;SDS011;70537;44.384;0.512;2023-12-20T11:09:25;0.73;;;0.20;;
77788;SDS011;70537;44.384;0.512;2023-12-20T11:12:08;4.97;;;0.80;;
77788;SDS011;70537;44.384;0.512;2023-12-20T11:14:38;2.90;;;0.90;;
77788;SDS011;70537;44.384;0.512;2023-12-20T11:17:10;2.47;;;0.40;;
77788;SDS011;70537;44.384;0.512;2023-12-20T11:19:43;0.85;;;0.60;;
77788;SDS011;70537;44.384;0.512;2023-12-20T11:22:24;2.42;;;0.50;;
77788;SDS011;70537;44.384;0.512;2023-12-20T11:24:50;2.50;;;0.38;;
77788;SDS011;70537;44.384;0.512;2023-12-20T11:27:15;4.32;;;0.85;;
77788;SDS011;70537;44.384;0.512;2023-12-20T11:29:41;1.17;;;0.40;;
77788;SDS011;70537;44.384;0.512;2023-12-20T11:34:53;1.88;;;0.30;;
77788;SDS011;70537;44.384;0.512;2023-12-20T11:37:19;4.07;;;0.55;;
77788;SDS011;70537;44.384;0.512;2023-12-20T11:39:44;0.52;;;0.40;;
77788;SDS011;70537;44.384;0.512;2023-12-20T11:42:10;16.58;;;5.35;;
77788;SDS011;70537;44.384;0.512;2023-12-20T11:44:36;1.75;;;0.38;;
77788;SDS011;70537;44.384;0.512;2023-12-20T11:47:01;4.82;;;0.63;;
77788;SDS011;70537;44.384;0.512;2023-12-20T11:49:26;2.15;;;0.40;;
77788;SDS011;70537;44.384;0.512;2023-12-20T11:51:54;3.72;;;0.68;;
77788;SDS011;70537;44.384;0.512;2023-12-20T11:54:19;3.30;;;0.20;;
77788;SDS011;70537;44.384;0.512;2023-12-20T11:56:45;4.95;;;1.27;;
77788;SDS011;70537;44.384;0.512;2023-12-20T11:59:11;3.53;;;0.52;;
77788;SDS011;70537;44.384;0.512;2023-12-20T12:01:36;1.55;;;0.45;;
77788;SDS011;70537;44.384;0.512;2023-12-20T12:04:03;3.15;;;0.57;;
77788;SDS011;70537;44.384;0.512;2023-12-20T12:06:28;2.03;;;0.77;;
77788;SDS011;70537;44.384;0.512;2023-12-20T12:08:54;2.20;;;0.30;;
77788;SDS011;70537;44.384;0.512;2023-12-20T12:11:19;1.98;;;0.25;;
77788;SDS011;70537;44.384;0.512;2023-12-20T12:13:44;5.75;;;0.28;;
77788;SDS011;70537;44.384;0.512;2023-12-20T12:16:10;1.83;;;0.50;;
77788;SDS011;70537;44.384;0.512;2023-12-20T12:18:36;5.43;;;0.40;;
77788;SDS011;70537;44.384;0.512;2023-12-20T12:21:01;3.92;;;0.22;;
77788;SDS011;70537;44.384;0.512;2023-12-20T12:23:27;1.70;;;0.30;;
77788;SDS011;70537;44.384;0.512;2023-12-20T12:25:53;5.90;;;0.63;;
77788;SDS011;70537;44.384;0.512;2023-12-20T12:28:20;3.63;;;0.45;;
77788;SDS011;70537;44.384;0.512;2023-12-20T12:30:58;4.32;;;0.45;;
77788;SDS011;70537;44.384;0.512;2023-12-20T12:33:24;2.55;;;0.40;;
77788;SDS011;70537;44.384;0.512;2023-12-20T12:35:49;1.95;;;0.55;;
77788;SDS011;70537;44.384;0.512;2023-12-20T12:38:15;5.47;;;0.90;;
77788;SDS011;70537;44.384;0.512;2023-12-20T12:40:40;3.20;;;0.70;;
77788;SDS011;70537;44.384;0.512;2023-12-20T12:43:08;0.77;;;0.50;;
77788;SDS011;70537;44.384;0.512;2023-12-20T12:45:33;0.43;;;0.30;;
77788;SDS011;70537;44.384;0.512;2023-12-20T12:47:59;1.40;;;0.47;;
77788;SDS011;70537;44.384;0.512;2023-12-20T12:50:24;2.53;;;0.50;;
77788;SDS011;70537;44.384;0.512;2023-12-20T12:52:49;1.92;;;0.43;;
77788;SDS011;70537;44.384;0.512;2023-12-20T12:55:15;3.88;;;0.65;;
77788;SDS011;70537;44.384;0.512;2023-12-20T12:57:40;1.67;;;0.20;;
77788;SDS011;70537;44.384;0.512;2023-12-20T13:00:06;3.97;;;0.20;;
77788;SDS011;70537;44.384;0.512;2023-12-20T13:02:33;3.95;;;0.22;;
77788;SDS011;70537;44.384;0.512;2023-12-20T13:04:59;8.82;;;0.40;;
77788;SDS011;70537;44.384;0.512;2023-12-20T13:07:26;3.13;;;0.20;;
77788;SDS011;70537;44.384;0.512;2023-12-20T13:09:51;0.40;;;0.20;;
77788;SDS011;70537;44.384;0.512;2023-12-20T13:12:16;1.23;;;0.65;;
77788;SDS011;70537;44.384;0.512;2023-12-20T13:14:42;3.53;;;0.32;;
77788;SDS011;70537;44.384;0.512;2023-12-20T13:17:07;2.03;;;0.43;;
77788;SDS011;70537;44.384;0.512;2023-12-20T13:19:32;5.50;;;0.70;;
77788;SDS011;70537;44.384;0.512;2023-12-20T13:21:58;3.38;;;0.40;;
77788;SDS011;70537;44.384;0.512;2023-12-20T13:24:23;4.65;;;0.47;;
77788;SDS011;70537;44.384;0.512;2023-12-20T13:26:48;0.95;;;0.68;;
77788;SDS011;70537;44.384;0.512;2023-12-20T13:29:14;2.22;;;0.10;;
77788;SDS011;70537;44.384;0.512;2023-12-20T13:31:39;1.70;;;0.10;;
77788;SDS011;70537;44.384;0.512;2023-12-20T13:34:05;2.72;;;0.38;;
77788;SDS011;70537;44.384;0.512;2023-12-20T13:36:31;1.50;;;0.17;;
77788;SDS011;70537;44.384;0.512;2023-12-20T13:38:56;4.97;;;1.13;;
77788;SDS011;70537;44.384;0.512;2023-12-20T13:41:22;2.10;;;0.20;;
77788;SDS011;70537;44.384;0.512;2023-12-20T13:43:47;2.45;;;0.30;;
77788;SDS011;70537;44.384;0.512;2023-12-20T13:46:12;2.35;;;0.45;;
77788;SDS011;70537;44.384;0.512;2023-12-20T13:48:39;1.08;;;0.45;;
77788;SDS011;70537;44.384;0.512;2023-12-20T13:51:04;3.20;;;0.68;;
77788;SDS011;70537;44.384;0.512;2023-12-20T13:53:31;2.15;;;0.20;;
77788;SDS011;70537;44.384;0.512;2023-12-20T13:55:56;2.90;;;0.30;;
77788;SDS011;70537;44.384;0.512;2023-12-20T13:58:22;0.75;;;0.10;;
77788;SDS011;70537;44.384;0.512;2023-12-20T14:00:48;1.85;;;0.13;;
77788;SDS011;70537;44.384;0.512;2023-12-20T14:03:13;1.38;;;0.32;;
77788;SDS011;70537;44.384;0.512;2023-12-20T14:05:38;2.03;;;0.52;;
77788;SDS011;70537;44.384;0.512;2023-12-20T14:08:04;1.92;;;0.40;;
77788;SDS011;70537;44.384;0.512;2023-12-20T14:10:30;3.92;;;0.40;;
77788;SDS011;70537;44.384;0.512;2023-12-20T14:12:55;1.45;;;0.45;;
77788;SDS011;70537;44.384;0.512;2023-12-20T14:15:21;1.83;;;0.40;;
77788;SDS011;70537;44.384;0.512;2023-12-20T14:17:46;3.28;;;0.43;;
77788;SDS011;70537;44.384;0.512;2023-12-20T14:20:13;2.88;;;0.30;;
77788;SDS011;70537;44.384;0.512;2023-12-20T14:22:39;3.00;;;0.15;;
77788;SDS011;70537;44.384;0.512;2023-12-20T14:25:10;1.90;;;0.30;;
77788;SDS011;70537;44.384;0.512;2023-12-20T14:27:36;2.75;;;0.38;;
77788;SDS011;70537;44.384;0.512;2023-12-20T14:30:01;4.35;;;0.28;;
77788;SDS011;70537;44.384;0.512;2023-12-20T14:32:27;1.95;;;0.30;;
77788;SDS011;70537;44.384;0.512;2023-12-20T14:34:54;1.75;;;0.60;;
77788;SDS011;70537;44.384;0.512;2023-12-20T14:37:22;6.53;;;1.00;;
77788;SDS011;70537;44.384;0.512;2023-12-20T14:39:47;1.35;;;0.40;;
77788;SDS011;70537;44.384;0.512;2023-12-20T14:42:13;1.88;;;0.57;;
77788;SDS011;70537;44.384;0.512;2023-12-20T14:44:42;1.10;;;0.30;;